»·PEaware :: N302ER KSAT-KELP

N302ER :: KSAT-KELP

FLIGHT INFORMATION

Flight Status: Arrived
Operator: Privately registered:
United States
More flights under this callsign
Pilot: Jimmy H. (16574)
Aircraft: PIAGGIO P-180 AVANTI
(P180)
More flights by this aircraft type
Origin: KSAT San Antonio Intl
United States
Destination: KELP El Paso Intl
United States
More flights between these airports :: More routes between these airports
Route: BOWIE7 SAT J138 CSI FST J86 ELP
File this flight plan on PilotEdge
Remarks:
Altitude:
(Current/Filed)
32,000ft
Speed:
(Current/Filed)
370kts
Departed: 20-Nov-17 05:33 PM
Arrived: 20-Nov-17 07:00 PM
Distance/Time
Traveled:
430nm/1:27
Distance/Time
To Go:
Arrived

Flight Plot

Page will automatically refresh every two minutes.

Flight plan parsing failed; only flown route is shown


Map Options




Map Legend


Flown Route
Filed Route
Departure Airport
Arrival Airport
Navaid (VOR, NDB)
Fix

Horizontal Profiles

Position Reports

Time Latitude Longitude Heading Altitude Ground
Speed
20-Nov-17 17:35 29.542381 -98.485691 41 777ft 0kts
20-Nov-17 17:36 29.542381 -98.485691 41 777ft 0kts
20-Nov-17 17:37 29.542381 -98.485691 41 777ft 0kts
20-Nov-17 17:38 29.541646 -98.484125 130 777ft 59kts
20-Nov-17 17:39 29.516514 -98.450077 117 2731ft 157kts
20-Nov-17 17:40 29.542487 -98.434540 299 5319ft 177kts
20-Nov-17 17:41 29.546626 -98.490216 282 7876ft 183kts
20-Nov-17 17:42 29.561566 -98.545835 291 10307ft 187kts
20-Nov-17 17:43 29.581371 -98.601283 298 12731ft 193kts
20-Nov-17 17:44 29.608906 -98.654906 302 14931ft 200kts
20-Nov-17 17:45 29.639174 -98.709486 302 16892ft 208kts
20-Nov-17 17:46 29.670902 -98.765907 303 19174ft 214kts
20-Nov-17 17:47 29.703647 -98.824074 303 21267ft 222kts
20-Nov-17 17:48 29.737583 -98.884417 303 23250ft 228kts
20-Nov-17 17:49 29.772359 -98.946348 303 24952ft 236kts
20-Nov-17 17:50 29.808302 -99.010444 303 26705ft 242kts
20-Nov-17 17:51 29.845261 -99.076460 303 28444ft 249kts
20-Nov-17 17:52 29.883197 -99.143942 302 29973ft 256kts
20-Nov-17 17:53 29.921778 -99.214015 294 31279ft 262kts
20-Nov-17 17:54 29.945734 -99.294643 288 32095ft 280kts
20-Nov-17 17:55 29.972174 -99.385806 288 32101ft 317kts
20-Nov-17 17:56 30.001096 -99.485869 288 32093ft 339kts
20-Nov-17 17:57 30.031319 -99.590788 288 32083ft 352kts
20-Nov-17 17:58 30.062352 -99.698885 288 32076ft 359kts
20-Nov-17 17:59 30.093820 -99.808878 288 32074ft 362kts
20-Nov-17 18:00 30.125280 -99.919226 288 32073ft 364kts
20-Nov-17 18:01 30.156840 -100.030334 288 32073ft 365kts
20-Nov-17 18:02 30.188450 -100.141419 288 32080ft 365kts
20-Nov-17 18:03 30.220044 -100.253004 287 32097ft 365kts
20-Nov-17 18:04 30.251329 -100.364328 287 32109ft 365kts
20-Nov-17 18:05 30.282471 -100.475568 288 32109ft 365kts
20-Nov-17 18:06 30.313627 -100.587271 287 32109ft 365kts
20-Nov-17 18:07 30.344619 -100.698801 287 32109ft 365kts
20-Nov-17 18:08 30.375581 -100.810618 287 32109ft 365kts
20-Nov-17 18:09 30.406553 -100.922877 287 32097ft 365kts
20-Nov-17 18:10 30.437337 -101.034906 287 32084ft 366kts
20-Nov-17 18:11 30.468171 -101.146841 287 32082ft 365kts
20-Nov-17 18:12 30.498883 -101.259023 287 32082ft 365kts
20-Nov-17 18:13 30.529347 -101.371115 287 32082ft 365kts
20-Nov-17 18:14 30.559754 -101.483441 287 32082ft 365kts
20-Nov-17 18:15 30.590071 -101.595855 287 32082ft 366kts
20-Nov-17 18:16 30.620308 -101.708404 287 32082ft 366kts
20-Nov-17 18:17 30.650398 -101.820839 287 32082ft 366kts
20-Nov-17 18:18 30.680351 -101.933198 287 32082ft 366kts
20-Nov-17 18:19 30.710274 -102.045873 287 32075ft 366kts
20-Nov-17 18:20 30.740410 -102.158933 287 32050ft 366kts
20-Nov-17 18:21 30.770257 -102.271889 286 32028ft 366kts
20-Nov-17 18:22 30.799940 -102.385000 286 32027ft 366kts
20-Nov-17 18:23 30.829553 -102.498370 287 32028ft 366kts
20-Nov-17 18:24 30.858958 -102.611533 289 31400ft 362kts
20-Nov-17 18:25 30.887768 -102.722593 292 30398ft 358kts
20-Nov-17 18:26 30.916523 -102.833502 292 29419ft 359kts
20-Nov-17 18:27 30.945274 -102.945182 292 28443ft 361kts
20-Nov-17 18:28 30.974583 -103.057241 293 27468ft 362kts
20-Nov-17 18:29 31.005346 -103.168442 292 26484ft 364kts
20-Nov-17 18:30 31.036293 -103.281078 292 25486ft 366kts
20-Nov-17 18:31 31.067251 -103.394393 292 24486ft 366kts
20-Nov-17 18:32 31.097521 -103.505699 292 24015ft 352kts
20-Nov-17 18:33 31.127359 -103.615680 292 24032ft 359kts
20-Nov-17 18:34 31.157365 -103.726634 292 24028ft 362kts
20-Nov-17 18:35 31.186806 -103.835835 289 24027ft 358kts
20-Nov-17 18:36 31.216342 -103.946144 287 24026ft 356kts
20-Nov-17 18:37 31.245717 -104.056380 287 24027ft 355kts
20-Nov-17 18:38 31.275192 -104.166276 287 24027ft 355kts
20-Nov-17 18:39 31.304521 -104.276693 287 23723ft 355kts
20-Nov-17 18:40 31.333327 -104.385782 287 22532ft 349kts
20-Nov-17 18:41 31.361662 -104.493522 287 21337ft 346kts
20-Nov-17 18:42 31.389749 -104.600725 287 20141ft 343kts
20-Nov-17 18:43 31.417273 -104.706170 287 18931ft 335kts
20-Nov-17 18:44 31.444171 -104.809601 287 17735ft 331kts
20-Nov-17 18:45 31.470726 -104.912086 287 16534ft 327kts
20-Nov-17 18:46 31.496928 -105.013575 287 15338ft 325kts
20-Nov-17 18:47 31.522211 -105.111736 286 14165ft 318kts
20-Nov-17 18:48 31.547389 -105.208915 286 12952ft 307kts
20-Nov-17 18:49 31.571677 -105.303987 286 11749ft 302kts
20-Nov-17 18:50 31.595335 -105.396937 286 11010ft 288kts
20-Nov-17 18:51 31.617756 -105.485225 286 11005ft 281kts
20-Nov-17 18:52 31.640132 -105.573678 286 11006ft 284kts
20-Nov-17 18:53 31.662535 -105.662533 286 11004ft 285kts
20-Nov-17 18:54 31.684960 -105.751748 286 11000ft 285kts
20-Nov-17 18:55 31.707394 -105.841352 286 10150ft 281kts
20-Nov-17 18:56 31.728915 -105.927539 287 8945ft 271kts
20-Nov-17 18:57 31.749692 -106.010994 286 7997ft 252kts
20-Nov-17 18:58 31.767143 -106.081261 286 7985ft 199kts
20-Nov-17 18:59 31.780641 -106.135055 286 7993ft 154kts
20-Nov-17 19:00 31.790834 -106.184290 277 7510ft 157kts
20-Nov-17 19:01 31.794019 -106.233686 273 6601ft 147kts
20-Nov-17 19:02 31.796501 -106.279324 273 5434ft 136kts
20-Nov-17 19:03 31.798904 -106.323228 269 4652ft 132kts
20-Nov-17 19:04 31.800750 -106.362549 270 3963ft 102kts
20-Nov-17 19:05 31.800265 -106.370539 183 3948ft 0kts
20-Nov-17 19:06 31.800265 -106.370546 183 3948ft 0kts
20-Nov-17 19:07 31.799172 -106.371313 241 3947ft 11kts
20-Nov-17 19:08 31.797778 -106.374253 212 3944ft 7kts
20-Nov-17 19:09 31.797627 -106.374833 258 3943ft 0kts

Navigation Log

Ident Type
Flight plan parsing failed, navigation log unavailable